Time;durP1;ratioP1;P1;durP2;ratioP2;P2;SDS_P1;SDS_P2;PMS_P1;PMS_P2;Temp;Humidity;BMP_temperature;BMP_pressure;BME280_temperature;BME280_humidity;BME280_pressure;Samples;Min_cycle;Max_cycle;Signal;HPM_P1;HPM_P2
2021/10/27 00:02:09;;;;;;;6.47;5.30;;;;;;;;;;5124979;28;20192;-80
2021/10/27 00:04:35;;;;;;;7.40;5.90;;;5.50;99.90;;;;;;5124262;28;20179;-80
2021/10/27 00:07:01;;;;;;;8.53;5.73;;;;;;;;;;5123200;28;20175;-80
2021/10/27 00:09:27;;;;;;;7.57;5.63;;;5.50;99.90;;;;;;5122529;28;20199;-80
2021/10/27 00:11:53;;;;;;;6.90;5.77;;;;;;;;;;5118219;28;20199;-80
2021/10/27 00:14:18;;;;;;;11.10;6.07;;;5.40;99.90;;;;;;5120052;28;20179;-80
2021/10/27 00:16:44;;;;;;;9.23;5.97;;;5.40;99.90;;;;;;5123308;28;20416;-80
2021/10/27 00:19:10;;;;;;;7.57;5.37;;;;;;;;;;5122098;28;20180;-80
2021/10/27 00:21:36;;;;;;;7.53;5.50;;;5.40;99.90;;;;;;5122798;28;20199;-80
2021/10/27 00:24:02;;;;;;;6.97;5.40;;;5.40;99.90;;;;;;5123050;28;20179;-80
2021/10/27 00:26:28;;;;;;;6.43;4.83;;;;;;;;;;5121890;28;20176;-80
2021/10/27 00:28:53;;;;;;;6.63;5.27;;;5.40;99.90;;;;;;5123093;28;20206;-80
2021/10/27 00:31:19;;;;;;;6.67;4.80;;;5.40;99.90;;;;;;5122131;28;20437;-80
2021/10/27 00:33:45;;;;;;;6.33;5.30;;;;;;;;;;5122452;28;20191;-80
2021/10/27 00:36:11;;;;;;;7.50;4.83;;;;;;;;;;5122679;28;20179;-80
2021/10/27 00:38:37;;;;;;;7.43;5.13;;;;;;;;;;5123431;28;20451;-80
2021/10/27 00:41:06;;;;;;;7.73;4.77;;;5.30;99.90;;;;;;5121294;28;20433;-80
2021/10/27 00:43:32;;;;;;;5.47;4.17;;;;;;;;;;5122162;28;20413;-79
2021/10/27 00:45:58;;;;;;;6.57;4.73;;;5.20;99.90;;;;;;5122298;28;20420;-80
2021/10/27 00:48:23;;;;;;;8.80;5.03;;;5.20;99.90;;;;;;5123520;28;20240;-80
2021/10/27 00:50:49;;;;;;;6.53;4.93;;;5.10;99.90;;;;;;5122938;28;20191;-80
2021/10/27 00:53:15;;;;;;;6.37;5.20;;;5.10;99.90;;;;;;5122042;28;20262;-80
2021/10/27 00:55:40;;;;;;;6.70;5.27;;;5.10;99.90;;;;;;5122907;28;20678;-80
2021/10/27 00:58:07;;;;;;;7.33;5.57;;;5.10;99.90;;;;;;5122391;28;20179;-80
2021/10/27 01:00:35;;;;;;;7.17;5.20;;;5.00;99.90;;;;;;5123849;28;20325;-80
2021/10/27 01:03:01;;;;;;;7.33;4.90;;;;;;;;;;5123684;28;20409;-79
2021/10/27 01:05:27;;;;;;;6.00;4.47;;;;;;;;;;5122799;28;20429;-80
2021/10/27 01:07:54;;;;;;;5.53;4.50;;;5.00;99.90;;;;;;5124341;28;20460;-80
2021/10/27 01:10:20;;;;;;;6.83;5.17;;;;;;;;;;5131664;28;20413;-79
2021/10/27 01:12:46;;;;;;;6.33;4.73;;;;;;;;;;5131509;28;20409;-79
2021/10/27 01:15:12;;;;;;;6.30;4.87;;;;;;;;;;5131157;28;20413;-79
2021/10/27 01:17:40;;;;;;;6.37;4.67;;;4.90;99.90;;;;;;5131734;28;20406;-79
2021/10/27 01:20:06;;;;;;;6.00;4.90;;;;;;;;;;5131059;28;20417;-79
2021/10/27 01:22:35;;;;;;;5.53;3.97;;;4.90;99.90;;;;;;5121414;28;20517;-80
2021/10/27 01:25:03;;;;;;;7.43;5.07;;;5.00;99.90;;;;;;5123240;28;20172;-81
2021/10/27 01:27:30;;;;;;;5.63;4.77;;;4.90;99.90;;;;;;5130212;28;20405;-79
2021/10/27 01:29:56;;;;;;;6.83;4.97;;;;;;;;;;5129654;28;20250;-79
2021/10/27 01:32:31;;;;;;;7.23;4.63;;;4.90;99.90;;;;;;5130376;28;20452;-79
2021/10/27 01:34:58;;;;;;;7.37;5.23;;;;;;;;;;5123054;28;20405;-80
2021/10/27 01:37:25;;;;;;;6.03;4.60;;;;;;;;;;5122290;28;20409;-79
2021/10/27 01:39:53;;;;;;;7.13;4.77;;;4.80;99.90;;;;;;5122473;28;20495;-80
2021/10/27 01:42:19;;;;;;;7.90;4.93;;;4.80;99.90;;;;;;5123475;28;20429;-80
2021/10/27 01:44:44;;;;;;;7.47;4.50;;;4.80;99.90;;;;;;5122771;28;20409;-80
2021/10/27 01:47:10;;;;;;;7.17;5.73;;;4.70;99.90;;;;;;5119907;28;20263;-80
2021/10/27 01:49:36;;;;;;;5.43;4.53;;;4.80;99.90;;;;;;5120359;28;20215;-80
2021/10/27 01:52:03;;;;;;;4.77;4.10;;;4.70;99.90;;;;;;5120123;28;20557;-80
2021/10/27 01:54:30;;;;;;;8.97;5.03;;;;;;;;;;5121475;28;20213;-80
2021/10/27 01:56:57;;;;;;;6.33;4.50;;;;;;;;;;5124884;28;20460;-80
2021/10/27 01:59:23;;;;;;;6.00;4.87;;;;;;;;;;5126416;28;20412;-80
2021/10/27 02:01:51;;;;;;;6.93;4.40;;;4.60;99.90;;;;;;5126940;28;20456;-80
2021/10/27 02:04:21;;;;;;;6.97;4.67;;;4.60;99.90;;;;;;5127286;28;20424;-80
2021/10/27 02:06:47;;;;;;;5.80;4.30;;;4.50;99.90;;;;;;5126576;27;20441;-80
2021/10/27 02:09:13;;;;;;;6.03;4.03;;;4.50;99.90;;;;;;5127036;28;20456;-80
2021/10/27 02:11:39;;;;;;;5.63;4.30;;;4.50;99.90;;;;;;5128341;28;20435;-80
2021/10/27 02:14:05;;;;;;;7.73;4.53;;;;;;;;;;5127164;28;20179;-80
2021/10/27 02:16:31;;;;;;;4.70;4.07;;;4.40;99.90;;;;;;5129147;28;20172;-80
2021/10/27 02:18:57;;;;;;;5.50;4.23;;;;;;;;;;5126953;28;20930;-80
2021/10/27 02:21:23;;;;;;;5.23;4.60;;;4.40;99.90;;;;;;5126826;28;20618;-80
2021/10/27 02:23:49;;;;;;;6.83;3.97;;;;;;;;;;5127891;28;20175;-80
2021/10/27 02:26:15;;;;;;;5.67;4.37;;;4.30;99.90;;;;;;5127232;28;20183;-80
2021/10/27 02:28:42;;;;;;;4.23;3.40;;;;;;;;;;5128602;28;20452;-80
2021/10/27 02:31:08;;;;;;;4.60;4.10;;;;;;;;;;5126724;28;20437;-80
2021/10/27 02:33:34;;;;;;;6.03;4.70;;;;;;;;;;5127393;28;20500;-80
2021/10/27 02:36:00;;;;;;;5.50;4.10;;;4.30;99.90;;;;;;5127260;28;20449;-80
2021/10/27 02:38:26;;;;;;;14.30;8.00;;;;;;;;;;5128683;28;20798;-80
2021/10/27 02:40:53;;;;;;;8.23;5.77;;;;;;;;;;5124550;28;20231;-80
2021/10/27 02:43:20;;;;;;;7.13;4.37;;;;;;;;;;5125104;28;20413;-80
2021/10/27 02:45:46;;;;;;;5.30;4.43;;;;;;;;;;5128690;28;20421;-80
2021/10/27 02:48:14;;;;;;;6.77;4.50;;;4.20;99.90;;;;;;5128716;28;20457;-80
2021/10/27 02:50:41;;;;;;;5.67;4.23;;;4.10;99.90;;;;;;5127739;28;20956;-80
2021/10/27 02:53:08;;;;;;;22.47;9.63;;;4.10;99.90;;;;;;5127495;28;20832;-80
2021/10/27 02:55:34;;;;;;;20.10;10.57;;;;;;;;;;5127373;28;20175;-80
2021/10/27 02:58:00;;;;;;;20.73;10.63;;;4.10;99.90;;;;;;5126914;28;20431;-80
2021/10/27 03:00:27;;;;;;;19.40;10.43;;;4.10;99.90;;;;;;5128749;27;20179;-80
2021/10/27 03:02:53;;;;;;;29.33;14.87;;;;;;;;;;5127655;28;20424;-80
2021/10/27 03:05:20;;;;;;;21.03;9.60;;;4.10;99.90;;;;;;5128121;28;20458;-80
2021/10/27 03:07:46;;;;;;;47.60;21.60;;;4.00;99.90;;;;;;5125540;28;20452;-80
2021/10/27 03:10:12;;;;;;;27.60;16.37;;;3.90;99.90;;;;;;5123551;28;20516;-80
2021/10/27 03:12:38;;;;;;;10.40;7.03;;;;;;;;;;5125869;28;20441;-80
2021/10/27 03:15:05;;;;;;;17.77;12.27;;;3.90;99.90;;;;;;5122115;28;20179;-80
2021/10/27 03:17:31;;;;;;;14.60;11.20;;;3.90;99.90;;;;;;5119525;28;20413;-80
2021/10/27 03:19:56;;;;;;;9.30;7.77;;;3.90;99.90;;;;;;5123174;28;20421;-80
2021/10/27 03:22:23;;;;;;;12.33;8.13;;;;;;;;;;5125250;28;20432;-80
2021/10/27 03:24:48;;;;;;;13.10;8.63;;;3.80;99.90;;;;;;5125006;28;20645;-80
2021/10/27 03:27:14;;;;;;;13.70;9.23;;;3.80;99.90;;;;;;5124569;28;20425;-80
2021/10/27 03:29:40;;;;;;;13.37;7.60;;;3.80;99.90;;;;;;5128591;28;20211;-79
2021/10/27 03:32:07;;;;;;;12.67;7.27;;;3.70;99.90;;;;;;5134224;28;20206;-79
2021/10/27 03:34:32;;;;;;;7.63;5.27;;;3.70;99.90;;;;;;5133542;28;20414;-79
2021/10/27 03:36:58;;;;;;;8.77;6.00;;;;;;;;;;5126238;28;20945;-80
2021/10/27 03:39:24;;;;;;;6.87;4.43;;;;;;;;;;5124942;28;20529;-80
2021/10/27 03:41:50;;;;;;;4.90;3.93;;;;;;;;;;5124037;28;20945;-80
2021/10/27 03:44:16;;;;;;;7.00;5.00;;;;;;;;;;5122274;28;20421;-80
2021/10/27 03:46:42;;;;;;;6.33;4.60;;;3.70;99.90;;;;;;5123755;28;20879;-80
2021/10/27 03:49:08;;;;;;;5.10;4.20;;;3.70;99.90;;;;;;5122903;28;20464;-80
2021/10/27 03:51:34;;;;;;;4.63;3.70;;;3.70;99.90;;;;;;5124066;28;20233;-80
2021/10/27 03:54:00;;;;;;;5.57;3.90;;;3.70;99.90;;;;;;5122809;28;20179;-80
2021/10/27 03:56:26;;;;;;;5.63;4.00;;;;;;;;;;5124076;28;20176;-80
2021/10/27 03:58:52;;;;;;;6.77;4.50;;;;;;;;;;5123183;28;20685;-80
2021/10/27 04:01:17;;;;;;;8.00;3.97;;;3.60;99.90;;;;;;5125428;28;20486;-80
2021/10/27 04:03:43;;;;;;;5.37;3.77;;;3.50;99.90;;;;;;5125180;28;20234;-80
2021/10/27 04:06:09;;;;;;;7.43;4.17;;;;;;;;;;5124840;28;20176;-79
2021/10/27 04:08:35;;;;;;;8.20;4.33;;;;;;;;;;5126138;28;20206;-79
2021/10/27 04:11:01;;;;;;;9.77;4.93;;;3.50;99.90;;;;;;5122744;28;20428;-79
2021/10/27 04:13:27;;;;;;;6.33;3.70;;;;;;;;;;5124149;28;20413;-80
2021/10/27 04:15:53;;;;;;;6.73;3.97;;;3.40;99.90;;;;;;5122267;28;20186;-80
2021/10/27 04:18:19;;;;;;;5.73;4.20;;;3.40;99.90;;;;;;5123568;28;20545;-80
2021/10/27 04:20:45;;;;;;;8.77;4.43;;;;;;;;;;5123611;28;20199;-80
2021/10/27 04:23:11;;;;;;;4.83;3.60;;;;;;;;;;5123961;28;20207;-80
2021/10/27 04:25:37;;;;;;;4.07;3.50;;;3.40;99.90;;;;;;5124238;28;20406;-80
2021/10/27 04:28:05;;;;;;;4.50;3.27;;;3.40;99.90;;;;;;5122989;28;20827;-80
2021/10/27 04:30:31;;;;;;;4.50;3.87;;;;;;;;;;5122004;28;20470;-80
2021/10/27 04:32:57;;;;;;;4.50;3.07;;;;;;;;;;5123851;28;20428;-80
2021/10/27 04:35:25;;;;;;;5.10;3.60;;;3.40;99.90;;;;;;5121819;28;20406;-80
2021/10/27 04:37:50;;;;;;;5.57;3.77;;;3.40;99.90;;;;;;5121805;28;20183;-80
2021/10/27 04:40:19;;;;;;;3.73;3.33;;;3.30;99.90;;;;;;5122721;28;20424;-80
2021/10/27 04:42:46;;;;;;;4.53;3.10;;;3.30;99.90;;;;;;5122945;28;20179;-80
2021/10/27 04:45:12;;;;;;;4.97;4.00;;;;;;;;;;5122096;28;20836;-80
2021/10/27 04:47:39;;;;;;;5.97;3.80;;;3.30;99.90;;;;;;5121760;28;20438;-80
2021/10/27 04:50:06;;;;;;;4.70;3.53;;;3.30;99.90;;;;;;5123680;28;20419;-80
2021/10/27 04:52:32;;;;;;;4.83;2.90;;;3.20;99.90;;;;;;5122449;28;20429;-80
2021/10/27 04:54:58;;;;;;;8.27;3.83;;;;;;;;;;5122228;28;20420;-80
2021/10/27 04:57:25;;;;;;;5.37;3.97;;;3.20;99.90;;;;;;5122274;28;20187;-80
2021/10/27 04:59:51;;;;;;;5.77;3.67;;;;;;;;;;5122879;28;20176;-80
2021/10/27 05:02:17;;;;;;;5.03;3.83;;;3.10;99.90;;;;;;5122976;28;20444;-80
2021/10/27 05:04:44;;;;;;;3.70;3.33;;;;;;;;;;5126270;28;20231;-80
2021/10/27 05:07:12;;;;;;;4.93;3.83;;;3.00;99.90;;;;;;5125576;28;20488;-80
2021/10/27 05:09:39;;;;;;;5.30;3.33;;;;;;;;;;5125030;28;20521;-80
2021/10/27 05:12:05;;;;;;;7.07;3.20;;;3.00;99.90;;;;;;5124027;28;21055;-80
2021/10/27 05:14:42;;;;;;;6.03;3.47;;;3.00;99.90;;;;;;5125062;28;20446;-81
2021/10/27 05:17:10;;;;;;;5.43;4.17;;;3.00;99.90;;;;;;5123928;28;20496;-80
2021/10/27 05:19:46;;;;;;;9.10;4.10;;;3.10;99.90;;;;;;5123927;28;20413;-80
2021/10/27 05:22:13;;;;;;;5.77;3.50;;;3.10;99.90;;;;;;5124121;28;20797;-80
2021/10/27 05:24:40;;;;;;;6.33;4.03;;;3.00;99.90;;;;;;5120976;28;20421;-80
2021/10/27 05:27:07;;;;;;;6.33;3.70;;;3.10;99.90;;;;;;5122129;28;20752;-80
2021/10/27 05:29:33;;;;;;;5.50;3.87;;;3.10;99.90;;;;;;5135645;27;20445;-80
2021/10/27 05:31:59;;;;;;;6.57;3.73;;;;;;;;;;5122740;28;20433;-81
2021/10/27 05:34:26;;;;;;;6.83;3.20;;;;;;;;;;5123825;28;20955;-81
2021/10/27 05:36:51;;;;;;;9.00;3.37;;;3.00;99.90;;;;;;5131409;28;20905;-79
2021/10/27 05:39:17;;;;;;;3.93;3.23;;;;;;;;;;5134612;28;20405;-79
2021/10/27 05:41:48;;;;;;;4.00;3.00;;;;;;;;;;5133353;28;20195;-79
2021/10/27 05:44:19;;;;;;;8.10;3.80;;;3.00;99.90;;;;;;5122257;28;20417;-80
2021/10/27 05:46:47;;;;;;;5.03;3.30;;;3.00;99.90;;;;;;5122558;28;20445;-80
2021/10/27 05:52:05;;;;;;;4.90;2.93;;;3.00;99.90;;;;;;5121147;28;20431;-80
2021/10/27 05:57:15;;;;;;;10.93;3.70;;;2.90;99.90;;;;;;5121679;28;20392;-80
2021/10/27 05:59:40;;;;;;;7.83;3.53;;;2.90;99.90;;;;;;5121524;28;20437;-80
2021/10/27 06:02:06;;;;;;;3.17;2.80;;;2.90;99.90;;;;;;5120220;28;20199;-80
2021/10/27 06:04:35;;;;;;;15.13;3.50;;;2.90;99.90;;;;;;5122322;28;20221;-80
2021/10/27 06:07:01;;;;;;;4.77;3.60;;;2.90;99.90;;;;;;5121801;28;20401;-80
2021/10/27 06:09:27;;;;;;;7.67;3.30;;;;;;;;;;5122307;28;20498;-80
2021/10/27 06:11:53;;;;;;;4.03;2.83;;;;;;;;;;5121777;28;20195;-80
2021/10/27 06:14:19;;;;;;;5.07;3.03;;;;;;;;;;5121520;28;20409;-80
2021/10/27 06:16:45;;;;;;;5.90;3.07;;;;;;;;;;5121842;28;20763;-80
2021/10/27 06:19:11;;;;;;;4.33;3.50;;;3.00;99.90;;;;;;5122748;28;20401;-80
2021/10/27 06:21:38;;;;;;;4.90;2.97;;;3.00;99.90;;;;;;5122684;28;20231;-80
2021/10/27 06:24:05;;;;;;;3.67;2.73;;;3.00;99.90;;;;;;5121584;28;20176;-80
2021/10/27 06:26:32;;;;;;;4.70;3.23;;;;;;;;;;5118416;28;20425;-80
2021/10/27 06:29:06;;;;;;;7.43;3.00;;;;;;;;;;5121541;28;20468;-80
2021/10/27 06:31:39;;;;;;;3.57;3.03;;;3.00;99.90;;;;;;5125406;28;20428;-80
2021/10/27 06:47:26;;;;;;;6.73;4.63;;;3.40;99.90;;;;;;5126773;28;20408;-80
2021/10/27 06:49:52;;;;;;;5.53;3.90;;;3.40;99.90;;;;;;5125783;28;20508;-80
2021/10/27 06:52:18;;;;;;;5.43;3.27;;;3.50;99.90;;;;;;5127196;28;20466;-80
2021/10/27 06:54:51;;;;;;;4.80;3.20;;;;;;;;;;5126063;28;20171;-80
2021/10/27 06:57:18;;;;;;;3.73;3.00;;;3.60;99.90;;;;;;5126465;28;20164;-80
2021/10/27 06:59:46;;;;;;;7.33;3.13;;;;;;;;;;5125389;28;20417;-81
2021/10/27 07:05:47;;;;;;;4.00;2.93;;;3.70;99.90;;;;;;5127476;28;20398;-80
2021/10/27 07:16:03;;;;;;;2.37;2.17;;;;;;;;;;5130043;28;20389;-80
2021/10/27 07:18:28;;;;;;;3.10;2.70;;;4.30;99.90;;;;;;5131805;28;20417;-80
2021/10/27 07:20:54;;;;;;;3.43;2.27;;;;;;;;;;5125501;28;20449;-81
2021/10/27 07:23:20;;;;;;;3.63;2.10;;;4.50;99.90;;;;;;5125744;28;20211;-81
2021/10/27 07:25:53;;;;;;;4.20;2.70;;;4.60;99.90;;;;;;5125803;28;20409;-81
2021/10/27 07:28:20;;;;;;;5.07;2.50;;;4.70;99.90;;;;;;5125936;28;20187;-81
2021/10/27 07:30:47;;;;;;;2.40;2.07;;;;;;;;;;5124946;28;20474;-81
2021/10/27 07:33:13;;;;;;;4.07;2.20;;;5.00;99.90;;;;;;5125109;28;20433;-81
2021/10/27 07:35:46;;;;;;;4.03;2.70;;;;;;;;;;5125504;28;20425;-81
2021/10/27 07:40:57;;;;;;;2.77;2.33;;;5.60;99.90;;;;;;5134313;28;20488;-80
2021/10/27 07:43:28;;;;;;;5.00;2.33;;;5.70;99.90;;;;;;5135711;28;20413;-80
2021/10/27 07:45:54;;;;;;;2.50;1.97;;;5.90;99.90;;;;;;5130495;28;20409;-81
2021/10/27 07:48:20;;;;;;;3.80;2.37;;;6.10;99.90;;;;;;5122423;28;20210;-81
2021/10/27 07:50:47;;;;;;;3.20;2.30;;;6.30;99.90;;;;;;5122485;28;20199;-81
2021/10/27 07:53:14;;;;;;;3.40;2.33;;;6.80;99.90;;;;;;5122681;28;20179;-81
2021/10/27 07:55:43;;;;;;;6.97;4.10;;;7.40;99.90;;;;;;5122619;28;20172;-81
2021/10/27 07:58:10;;;;;;;8.23;5.27;;;8.00;99.90;;;;;;5123982;28;20181;-81
2021/10/27 08:00:36;;;;;;;3.80;2.80;;;8.30;99.90;;;;;;5123770;28;20196;-81
2021/10/27 08:03:03;;;;;;;3.13;2.80;;;8.70;99.90;;;;;;5125340;28;20175;-81
2021/10/27 08:05:31;;;;;;;3.10;2.27;;;9.10;99.90;;;;;;5124519;28;20186;-81
2021/10/27 08:08:00;;;;;;;2.73;1.80;;;9.40;99.90;;;;;;5124519;28;20207;-81
2021/10/27 08:10:26;;;;;;;4.47;2.10;;;9.60;99.90;;;;;;5125198;28;20176;-81
2021/10/27 08:12:53;;;;;;;9.60;5.33;;;9.90;99.90;;;;;;5127669;28;20172;-81
2021/10/27 08:15:18;;;;;;;15.93;7.73;;;10.20;99.90;;;;;;5125233;28;20242;-80
2021/10/27 08:17:45;;;;;;;10.67;3.53;;;10.50;99.90;;;;;;5123839;28;20202;-81
2021/10/27 08:20:16;;;;;;;7.37;4.13;;;10.70;99.90;;;;;;5123851;28;20176;-81
2021/10/27 08:22:45;;;;;;;13.40;8.43;;;11.20;99.90;;;;;;5122233;28;20191;-81
2021/10/27 08:25:30;;;;;;;9.93;5.00;;;11.40;99.90;;;;;;5117540;28;20176;-81
2021/10/27 08:28:02;;;;;;;7.97;3.17;;;11.70;99.90;;;;;;5120961;28;20213;-81
2021/10/27 08:30:41;;;;;;;4.90;2.23;;;11.90;99.90;;;;;;5124201;28;20708;-81
2021/10/27 08:33:08;;;;;;;4.47;1.70;;;12.00;99.90;;;;;;5122255;28;20221;-82
2021/10/27 08:35:36;;;;;;;4.60;1.90;;;12.10;99.90;;;;;;5122497;28;20617;-81
2021/10/27 08:38:03;;;;;;;5.57;2.10;;;12.40;99.90;;;;;;5124105;28;20175;-82
2021/10/27 08:40:30;;;;;;;5.67;3.47;;;12.40;99.90;;;;;;5120939;28;20176;-82
2021/10/27 08:42:57;;;;;;;2.40;1.97;;;12.80;99.90;;;;;;5121708;28;20183;-82
2021/10/27 08:45:24;;;;;;;4.33;1.80;;;13.20;99.90;;;;;;5123717;28;20191;-82
2021/10/27 08:47:54;;;;;;;3.87;1.83;;;13.50;99.90;;;;;;5124708;28;20191;-82
2021/10/27 08:50:22;;;;;;;5.40;2.30;;;14.00;99.90;;;;;;5122723;28;20277;-82
2021/10/27 08:52:50;;;;;;;3.87;2.17;;;14.40;99.90;;;;;;5125235;28;20181;-82
2021/10/27 08:55:17;;;;;;;9.93;5.43;;;14.80;99.90;;;;;;5125200;28;20174;-82
2021/10/27 08:57:46;;;;;;;4.73;2.03;;;15.10;99.90;;;;;;5125937;28;20174;-82
2021/10/27 09:01:05;;;;;;;2.63;2.03;;;15.20;99.90;;;;;;5125800;28;20167;-82
2021/10/27 09:03:17;;;;;;;7.93;2.63;;;15.20;99.90;;;;;;5121724;28;20187;-82
2021/10/27 09:08:43;;;;;;;5.53;2.60;;;15.90;99.90;;;;;;5124249;28;20184;-80
2021/10/27 10:06:42;;;;;;;3.47;2.17;;;18.10;99.90;;;;;;5122457;28;20619;-81
2021/10/27 10:09:08;;;;;;;2.90;2.37;;;18.00;99.90;;;;;;5121949;28;20178;-80
2021/10/27 10:11:35;;;;;;;3.23;2.10;;;18.10;99.90;;;;;;5120644;28;20200;-81
2021/10/27 10:14:03;;;;;;;4.53;2.33;;;18.30;99.90;;;;;;5120662;28;20170;-81
2021/10/27 10:16:32;;;;;;;2.30;2.10;;;18.60;99.90;;;;;;5121555;28;20661;-80
2021/10/27 10:19:07;;;;;;;2.70;2.30;;;19.00;99.90;;;;;;5125335;28;20178;-80
2021/10/27 10:21:45;;;;;;;3.23;2.43;;;18.90;99.90;;;;;;5127123;28;20199;-80
2021/10/27 10:24:17;;;;;;;3.73;2.83;;;18.80;99.90;;;;;;5125409;28;20177;-81
2021/10/27 10:26:44;;;;;;;3.60;2.40;;;18.60;99.90;;;;;;5126551;28;20186;-80
2021/10/27 10:29:10;;;;;;;3.47;2.40;;;18.40;99.90;;;;;;5125637;28;20297;-81
2021/10/27 10:31:38;;;;;;;6.27;2.50;;;18.60;99.90;;;;;;5125299;28;20659;-80
2021/10/27 10:34:11;;;;;;;4.10;2.43;;;18.60;99.90;;;;;;5124477;28;20212;-80
2021/10/27 10:36:42;;;;;;;3.77;2.60;;;18.80;99.90;;;;;;5124562;28;20177;-80
2021/10/27 10:39:49;;;;;;;2.77;2.37;;;18.90;99.90;;;;;;5124994;28;20184;-80
2021/10/27 10:42:50;;;;;;;3.33;2.70;;;18.70;99.90;;;;;;5125534;28;20202;-81
2021/10/27 10:45:38;;;;;;;3.23;2.37;;;19.30;99.90;;;;;;5126991;28;20210;-81
2021/10/27 11:03:42;;;;;;;2.53;2.10;;;20.30;99.90;;;;;;5147442;27;20161;-81
2021/10/27 11:26:23;;;;;;;3.03;2.17;;;21.20;99.20;;;;;;5149741;27;20507;-81
2021/10/27 11:37:47;;;;;;;2.33;1.97;;;21.70;95.20;;;;;;5149021;27;20183;-81
2021/10/27 11:40:56;;;;;;;2.80;1.63;;;22.20;95.00;;;;;;5141814;27;20700;-81
2021/10/27 11:43:32;;;;;;;1.63;1.40;;;22.30;92.30;;;;;;5148916;27;20171;-81
2021/10/27 11:51:09;;;;;;;4.13;1.73;;;22.50;91.00;;;;;;5149591;27;20207;-82
2021/10/27 11:53:36;;;;;;;2.20;1.37;;;22.40;91.20;;;;;;5152277;27;20510;-79
2021/10/27 11:56:12;;;;;;;1.97;1.20;;;22.60;89.50;;;;;;5151152;27;20211;-79
2021/10/27 11:58:41;;;;;;;1.87;1.50;;;23.00;88.70;;;;;;5149705;27;20198;-79
2021/10/27 12:01:11;;;;;;;2.07;1.80;;;23.20;90.40;;;;;;5144492;27;20647;-79
2021/10/27 12:03:43;;;;;;;1.30;1.00;;;23.70;88.80;;;;;;5144887;27;20297;-79
2021/10/27 12:06:26;;;;;;;1.70;1.43;;;23.50;85.60;;;;;;5144691;27;20172;-81
2021/10/27 12:13:53;;;;;;;2.17;1.27;;;23.00;80.70;;;;;;5146715;27;20273;-80
2021/10/27 12:19:24;;;;;;;2.50;1.50;;;22.90;80.40;;;;;;5146987;27;20215;-81
2021/10/27 12:21:52;;;;;;;1.97;1.40;;;23.40;78.30;;;;;;5146574;27;20194;-81
2021/10/27 12:24:22;;;;;;;2.17;1.17;;;23.80;78.20;;;;;;5145424;27;20182;-81
2021/10/27 12:27:15;;;;;;;1.73;1.13;;;23.90;76.40;;;;;;5145521;27;20178;-81
2021/10/27 12:29:41;;;;;;;1.40;1.30;;;23.70;75.00;;;;;;5149064;27;20168;-82
2021/10/27 12:32:15;;;;;;;2.57;1.50;;;24.10;73.70;;;;;;5147466;27;20263;-79
2021/10/27 12:34:57;;;;;;;2.00;1.40;;;23.90;73.40;;;;;;5148870;27;20189;-81
2021/10/27 12:37:31;;;;;;;1.93;1.33;;;24.50;73.60;;;;;;5147156;27;20268;-82
2021/10/27 12:40:22;;;;;;;1.90;1.40;;;24.20;70.00;;;;;;5140270;27;20196;-82
2021/10/27 12:43:02;;;;;;;4.60;1.57;;;24.10;70.80;;;;;;5145347;27;20236;-81
2021/10/27 12:45:33;;;;;;;2.17;1.40;;;24.40;70.90;;;;;;5142031;27;20157;-81
2021/10/27 12:48:04;;;;;;;2.67;1.33;;;23.40;71.40;;;;;;5141465;27;20535;-82
2021/10/27 12:50:31;;;;;;;1.97;1.50;;;23.50;71.10;;;;;;5145162;27;20202;-82
2021/10/27 12:53:01;;;;;;;2.57;1.50;;;24.00;72.10;;;;;;5144275;27;20177;-81
2021/10/27 12:55:35;;;;;;;2.03;1.47;;;24.30;71.60;;;;;;5146151;27;20252;-81
2021/10/27 12:58:21;;;;;;;4.03;1.50;;;24.90;70.50;;;;;;5145602;27;20192;-81
2021/10/27 13:05:58;;;;;;;1.90;1.47;;;25.30;67.00;;;;;;5147750;27;20641;-81
2021/10/27 13:16:31;;;;;;;1.93;1.73;;;21.80;73.30;;;;;;5155301;27;20179;-81
2021/10/27 13:32:08;;;;;;;5.67;2.10;;;22.40;76.40;;;;;;5148035;27;20211;-80
2021/10/27 13:34:34;;;;;;;3.63;2.70;;;23.40;73.30;;;;;;5153999;27;20213;-80
2021/10/27 13:37:03;;;;;;;3.80;2.10;;;23.90;71.50;;;;;;5155283;27;20560;-80
2021/10/27 13:39:29;;;;;;;2.87;2.10;;;24.30;71.10;;;;;;5152688;27;20189;-81
2021/10/27 13:41:58;;;;;;;2.93;2.07;;;24.30;70.40;;;;;;5145455;27;20283;-79
2021/10/27 13:44:28;;;;;;;3.80;2.10;;;24.40;70.40;;;;;;5140597;27;20205;-80
2021/10/27 14:08:24;;;;;;;5.50;2.80;;;14.70;94.40;;;;;;5141385;28;20253;-80
2021/10/27 14:11:12;;;;;;;3.70;3.07;;;14.50;95.40;;;;;;5140428;28;20211;-80
2021/10/27 14:38:59;;;;;;;7.37;4.07;;;13.90;99.90;;;;;;5141629;28;20209;-80
2021/10/27 15:31:54;;;;;;;8.17;5.70;;;12.10;99.90;;;;;;5142136;27;20660;-80
2021/10/27 15:34:35;;;;;;;7.40;5.90;;;12.00;99.90;;;;;;5144814;27;20197;-81
2021/10/27 15:40:17;;;;;;;8.00;5.20;;;11.80;99.90;;;;;;5145687;27;20167;-80
2021/10/27 15:51:12;;;;;;;7.80;5.50;;;11.50;99.90;;;;;;5148224;27;20218;-82
2021/10/27 15:53:38;;;;;;;9.50;5.77;;;11.50;99.90;;;;;;5149620;27;20167;-81
2021/10/27 15:56:04;;;;;;;9.83;5.70;;;11.50;99.90;;;;;;5147013;27;20597;-82
2021/10/27 15:58:30;;;;;;;11.87;5.77;;;11.50;99.90;;;;;;5151447;27;20216;-82
2021/10/27 16:00:56;;;;;;;7.50;6.17;;;11.50;99.90;;;;;;5150182;27;20195;-80
2021/10/27 16:03:21;;;;;;;10.60;6.57;;;11.40;99.90;;;;;;5146885;27;20181;-81
2021/10/27 16:05:49;;;;;;;9.90;6.53;;;11.40;99.90;;;;;;5149157;27;20175;-81
2021/10/27 16:08:19;;;;;;;7.93;6.37;;;11.30;99.90;;;;;;5149565;27;20183;-80
2021/10/27 16:10:46;;;;;;;7.67;5.83;;;11.20;99.90;;;;;;5151065;27;20198;-78
2021/10/27 16:13:11;;;;;;;12.00;7.17;;;11.10;99.90;;;;;;5153928;27;20155;-80
2021/10/27 16:18:23;;;;;;;12.30;7.67;;;10.90;99.90;;;;;;5157451;27;20245;-81
2021/10/27 16:20:48;;;;;;;13.13;8.17;;;10.90;99.90;;;;;;5154840;27;20212;-80
2021/10/27 16:23:15;;;;;;;16.73;8.03;;;10.80;99.90;;;;;;5150365;27;20167;-81
2021/10/27 16:25:42;;;;;;;11.90;7.37;;;10.70;99.90;;;;;;5148523;27;20175;-81
2021/10/27 16:28:08;;;;;;;12.77;8.63;;;10.60;99.90;;;;;;5150194;27;20182;-81
2021/10/27 16:30:34;;;;;;;15.97;9.90;;;10.50;99.90;;;;;;5149753;27;20181;-81
2021/10/27 16:33:00;;;;;;;16.43;9.53;;;10.40;99.90;;;;;;5148689;27;20250;-81
2021/10/27 16:35:27;;;;;;;13.13;9.13;;;10.30;99.90;;;;;;5147407;27;20181;-82
2021/10/27 16:37:53;;;;;;;15.73;9.67;;;10.20;99.90;;;;;;5146357;27;20184;-82
2021/10/27 16:40:19;;;;;;;14.90;9.57;;;10.10;99.90;;;;;;5148262;27;20173;-81
2021/10/27 16:42:45;;;;;;;14.67;10.37;;;10.10;99.90;;;;;;5147705;27;20189;-81
2021/10/27 16:45:12;;;;;;;16.70;10.10;;;10.00;99.90;;;;;;5145661;27;20166;-81
2021/10/27 16:47:39;;;;;;;16.00;9.97;;;9.80;99.90;;;;;;5145757;27;20183;-81
2021/10/27 16:50:07;;;;;;;15.60;9.83;;;9.70;99.90;;;;;;5148418;27;20197;-81
2021/10/27 16:52:33;;;;;;;12.90;9.80;;;9.60;99.90;;;;;;5146563;27;20200;-81
2021/10/27 16:54:59;;;;;;;16.63;10.30;;;9.60;99.90;;;;;;5147979;27;20255;-81
2021/10/27 16:57:27;;;;;;;11.77;10.17;;;9.50;99.90;;;;;;5147211;27;20168;-81
2021/10/27 16:59:53;;;;;;;15.13;10.93;;;9.40;99.90;;;;;;5148661;27;20167;-81
2021/10/27 17:02:19;;;;;;;17.13;11.40;;;9.30;99.90;;;;;;5148255;27;20196;-81
2021/10/27 17:04:44;;;;;;;15.77;11.13;;;9.30;99.90;;;;;;5149044;27;20202;-81
2021/10/27 17:07:11;;;;;;;13.20;10.53;;;9.20;99.90;;;;;;5149290;27;20177;-81
2021/10/27 17:09:38;;;;;;;15.53;11.70;;;9.20;99.90;;;;;;5147992;27;20210;-81
2021/10/27 17:12:06;;;;;;;14.73;11.07;;;9.10;99.90;;;;;;5147247;27;20213;-81
2021/10/27 17:14:33;;;;;;;16.97;12.40;;;9.00;99.90;;;;;;5145272;27;20171;-81
2021/10/27 17:16:59;;;;;;;20.80;12.97;;;9.00;99.90;;;;;;5138246;27;20165;-81
2021/10/27 17:19:24;;;;;;;22.63;13.83;;;8.90;99.90;;;;;;5142026;27;20540;-81
2021/10/27 17:21:50;;;;;;;33.57;19.30;;;8.90;99.90;;;;;;5147838;27;20213;-81
2021/10/27 17:24:17;;;;;;;26.27;17.00;;;8.90;99.90;;;;;;5150504;27;20183;-81
2021/10/27 17:26:44;;;;;;;29.20;18.27;;;8.80;99.90;;;;;;5147457;27;20180;-81
2021/10/27 17:29:11;;;;;;;26.87;17.80;;;8.80;99.90;;;;;;5149393;27;20197;-81
2021/10/27 17:31:36;;;;;;;27.63;18.20;;;8.70;99.90;;;;;;5148686;27;20199;-81
2021/10/27 17:34:02;;;;;;;26.23;18.67;;;8.70;99.90;;;;;;5150648;27;20219;-81
2021/10/27 17:36:28;;;;;;;27.07;19.23;;;8.70;99.90;;;;;;5149679;27;20251;-81
2021/10/27 17:38:54;;;;;;;30.93;19.47;;;8.70;99.90;;;;;;5149569;27;20204;-83
2021/10/27 17:41:21;;;;;;;32.67;22.57;;;8.70;99.90;;;;;;5150197;27;20194;-82
2021/10/27 17:43:48;;;;;;;27.77;19.20;;;8.70;99.90;;;;;;5152903;27;20177;-81
2021/10/27 17:46:16;;;;;;;23.77;18.07;;;8.70;99.90;;;;;;5156683;27;20172;-81
2021/10/27 17:51:34;;;;;;;26.07;18.53;;;8.50;99.90;;;;;;5153123;27;20187;-81
2021/10/27 17:59:28;;;;;;;27.10;18.60;;;8.30;99.90;;;;;;5147842;27;20185;-81
2021/10/27 18:01:54;;;;;;;33.43;19.10;;;8.30;99.90;;;;;;5145107;27;20262;-82
2021/10/27 18:04:20;;;;;;;33.20;21.37;;;8.30;99.90;;;;;;5145335;27;20180;-81
2021/10/27 18:06:46;;;;;;;28.90;19.83;;;8.20;99.90;;;;;;5146472;28;20204;-82
2021/10/27 18:09:14;;;;;;;31.20;21.50;;;8.10;99.90;;;;;;5148028;28;20190;-82
2021/10/27 18:11:43;;;;;;;37.77;25.13;;;8.10;99.90;;;;;;5147228;28;20199;-82